createdAt,value
2022-11-10T00:01:34.875Z,97749.69
2022-11-10T00:06:56.977Z,97747.25
2022-11-10T00:12:19.996Z,97735.41
2022-11-10T00:17:42.033Z,97741.06
2022-11-10T00:23:04.429Z,97743.50
2022-11-10T00:28:26.895Z,97744.13
2022-11-10T00:33:48.513Z,97737.75
2022-11-10T00:39:10.896Z,97743.16
2022-11-10T00:44:32.684Z,97748.47
2022-11-10T00:49:54.646Z,97748.47
2022-11-10T00:55:16.870Z,97744.22
2022-11-10T01:00:38.822Z,97742.06
2022-11-10T01:06:09.471Z,97741.28
2022-11-10T01:11:31.421Z,97747.41
2022-11-10T01:16:53.302Z,97738.44
2022-11-10T01:22:15.569Z,97741.31
2022-11-10T01:27:37.802Z,97727.75
2022-11-10T01:32:59.570Z,97736.56
2022-11-10T01:38:22.135Z,97742.47
2022-11-10T01:43:44.174Z,97731.91
2022-11-10T01:49:07.071Z,97745.38
2022-11-10T01:54:46.663Z,97734.13
2022-11-10T02:00:10.823Z,97750.59
2022-11-10T02:05:33.481Z,97750.38
2022-11-10T02:10:55.361Z,97743.28
2022-11-10T02:16:18.506Z,97758.84
2022-11-10T02:21:40.534Z,97758.03
2022-11-10T02:27:03.098Z,97762.06
2022-11-10T02:32:24.710Z,97750.94
2022-11-10T02:37:46.523Z,97756.59
2022-11-10T02:43:15.510Z,97750.13
2022-11-10T02:48:39.120Z,97753.72
2022-11-10T02:54:01.374Z,97759.19
2022-11-10T02:59:23.582Z,97758.69
2022-11-10T03:04:45.835Z,97767.34
2022-11-10T03:10:08.286Z,97771.44
2022-11-10T03:15:30.253Z,97766.38
2022-11-10T03:20:51.914Z,97766.94
2022-11-10T03:26:13.913Z,97774.75
2022-11-10T03:31:35.742Z,97765.06
2022-11-10T03:36:57.510Z,97763.44
2022-11-10T03:42:19.739Z,97771.75
2022-11-10T03:47:44.831Z,97776.56
2022-11-10T03:53:06.624Z,97780.91
2022-11-10T03:58:28.361Z,97782.75
2022-11-10T04:03:57.689Z,97791.44
2022-11-10T04:09:19.344Z,97804.66
2022-11-10T04:14:41.277Z,97794.94
2022-11-10T04:20:03.862Z,97801.72
2022-11-10T04:25:26.092Z,97798.53
2022-11-10T04:30:49.305Z,97808.34
2022-11-10T04:36:13.383Z,97804.88
2022-11-10T04:41:35.634Z,97804.56
2022-11-10T04:46:57.680Z,97808.81
2022-11-10T04:52:19.602Z,97820.06
2022-11-10T04:57:43.238Z,97829.16
2022-11-10T05:03:07.964Z,97827.06
2022-11-10T05:08:29.894Z,97843.53
2022-11-10T05:13:52.048Z,97850.13
2022-11-10T05:19:13.793Z,97861.84
2022-11-10T05:24:35.573Z,97859.16
2022-11-10T05:29:57.623Z,97863.56
2022-11-10T05:35:19.285Z,97885.38
2022-11-10T05:40:40.953Z,97903.41
2022-11-10T05:46:03.006Z,97905.31
2022-11-10T05:51:25.109Z,97915.66
2022-11-10T05:56:47.586Z,97918.56
2022-11-10T06:02:09.541Z,97934.13
2022-11-10T06:07:31.440Z,97937.44
2022-11-10T06:12:54.683Z,97934.88
2022-11-10T06:18:16.329Z,97936.97
2022-11-10T06:23:37.977Z,97916.13
2022-11-10T06:29:00.210Z,97918.84
2022-11-10T06:34:23.119Z,97921.59
2022-11-10T06:39:44.877Z,97926.09
2022-11-10T06:45:07.971Z,97922.81
2022-11-10T06:50:30.988Z,97930.66
2022-11-10T06:55:53.143Z,97925.84
2022-11-10T07:01:17.649Z,97936.38
2022-11-10T07:06:43.692Z,97944.47
2022-11-10T07:12:06.252Z,97937.53
2022-11-10T07:17:28.349Z,97942.41
2022-11-10T07:22:50.337Z,97942.88
2022-11-10T07:28:12.987Z,97947.41
2022-11-10T07:33:35.440Z,97938.28
2022-11-10T07:38:57.304Z,97932.78
2022-11-10T07:44:22.463Z,97943.72
2022-11-10T07:49:46.227Z,97940.69
2022-11-10T07:55:08.286Z,97939.03
2022-11-10T08:00:30.295Z,97931.94
2022-11-10T08:05:52.417Z,97942.78
2022-11-10T08:11:14.770Z,97945.50
2022-11-10T08:16:36.383Z,97938.69
2022-11-10T08:21:58.369Z,97942.06
2022-11-10T08:27:20.383Z,97935.50
2022-11-10T08:32:43.169Z,97923.53
2022-11-10T08:38:11.790Z,97932.53
2022-11-10T08:43:33.973Z,97930.63
2022-11-10T08:48:55.920Z,97924.81
2022-11-10T08:54:17.714Z,97917.84
2022-11-10T08:59:39.453Z,97926.75
2022-11-10T09:05:01.520Z,97928.88
2022-11-10T09:10:23.966Z,97921.50
2022-11-10T09:15:45.929Z,97926.66
2022-11-10T09:21:08.426Z,97929.69
2022-11-10T09:26:31.643Z,97931.94
2022-11-10T09:31:53.719Z,97922.81
2022-11-10T09:37:15.674Z,97922.28
2022-11-10T09:42:40.824Z,97916.38
2022-11-10T09:48:13.067Z,97909.06
2022-11-10T09:53:41.814Z,97912.06
2022-11-10T09:59:14.419Z,97910.13
2022-11-10T10:05:07.796Z,97899.06
2022-11-10T10:10:37.558Z,97904.41
2022-11-10T10:16:05.218Z,97898.94
2022-11-10T10:21:48.746Z,97898.38
2022-11-10T10:27:19.458Z,97891.69
2022-11-10T10:32:41.256Z,97894.78
2022-11-10T10:38:05.756Z,97884.25
2022-11-10T10:43:27.767Z,97881.88
2022-11-10T10:49:32.165Z,97882.72
2022-11-10T10:55:01.154Z,97871.88
2022-11-10T11:00:23.887Z,97877.56
2022-11-10T11:05:59.807Z,97881.88
2022-11-10T11:11:26.781Z,97881.91
2022-11-10T11:17:13.402Z,97875.69
2022-11-10T11:22:35.485Z,97881.66
2022-11-10T11:28:22.340Z,97880.31
2022-11-10T11:34:13.583Z,97883.28
2022-11-10T11:40:01.356Z,97891.13
2022-11-10T11:45:58.757Z,97892.50
2022-11-10T11:51:31.140Z,97893.84
2022-11-10T11:56:56.950Z,97900.59
2022-11-10T12:02:52.492Z,97899.56
2022-11-10T12:08:41.571Z,97895.75
2022-11-10T12:14:27.570Z,97903.59
2022-11-10T12:20:14.853Z,97913.09
2022-11-10T12:25:58.608Z,97915.00
2022-11-10T12:31:25.164Z,97914.19
2022-11-10T12:36:48.994Z,97910.94
2022-11-10T12:42:21.364Z,97915.81
2022-11-10T12:47:45.538Z,97920.41
2022-11-10T12:53:20.372Z,97919.84
2022-11-10T12:58:42.758Z,97915.53
2022-11-10T13:04:05.633Z,97914.72
2022-11-10T13:09:34.077Z,97925.00
2022-11-10T13:14:55.900Z,97927.13
2022-11-10T13:20:50.991Z,97924.97
2022-11-10T13:26:45.834Z,97931.47
2022-11-10T13:32:13.630Z,97932.25
2022-11-10T13:37:35.232Z,97937.09
2022-11-10T13:43:00.051Z,97931.94
2022-11-10T13:48:36.853Z,97937.03
2022-11-10T13:54:45.100Z,97944.25
2022-11-10T14:00:37.272Z,97944.47
2022-11-10T14:06:05.192Z,97940.34
2022-11-10T14:11:37.167Z,97941.91
2022-11-10T14:16:59.818Z,97942.91
2022-11-10T14:22:33.260Z,97960.13
2022-11-10T14:27:58.401Z,97955.44
2022-11-10T14:33:23.103Z,97957.00
2022-11-10T14:38:45.631Z,97961.19
2022-11-10T14:44:13.653Z,97968.38
2022-11-10T14:49:35.715Z,97965.28
2022-11-10T14:54:57.885Z,97969.75
2022-11-10T15:00:24.022Z,97968.31
2022-11-10T15:05:47.865Z,97974.41
2022-11-10T15:11:37.662Z,97980.03
2022-11-10T15:17:01.270Z,97981.28
2022-11-10T15:22:30.978Z,97987.69
2022-11-10T15:28:02.320Z,97987.06
2022-11-10T15:33:27.801Z,97984.03
2022-11-10T15:39:12.081Z,97988.06
2022-11-10T15:44:33.846Z,97997.50
2022-11-10T15:49:55.534Z,97997.94
2022-11-10T15:55:24.564Z,98004.94
2022-11-10T16:00:47.313Z,98009.75
2022-11-10T16:06:18.279Z,98012.38
2022-11-10T16:11:43.553Z,98008.56
2022-11-10T16:17:06.270Z,98012.56
2022-11-10T16:22:31.836Z,98012.50
2022-11-10T16:27:53.793Z,98012.72
2022-11-10T16:33:17.481Z,98013.53
2022-11-10T16:38:39.894Z,98024.34
2022-11-10T16:44:01.822Z,98015.22
2022-11-10T16:49:26.965Z,98020.34
2022-11-10T16:54:48.752Z,98023.31
2022-11-10T17:00:11.139Z,98025.34
2022-11-10T17:05:35.050Z,98027.81
2022-11-10T17:10:57.494Z,98028.03
2022-11-10T17:16:28.865Z,98023.97
2022-11-10T17:21:53.300Z,98024.69
2022-11-10T17:27:15.644Z,98025.75
2022-11-10T17:33:03.454Z,98037.88
2022-11-10T17:38:30.852Z,98040.78
2022-11-10T17:43:53.042Z,98037.53
2022-11-10T17:49:14.740Z,98048.59
2022-11-10T17:54:36.604Z,98052.34
2022-11-10T17:59:58.876Z,98050.72
2022-11-10T18:05:21.001Z,98048.25
2022-11-10T18:10:49.257Z,98060.34
2022-11-10T18:16:13.441Z,98055.44
2022-11-10T18:21:34.964Z,98063.22
2022-11-10T18:26:57.664Z,98061.59
2022-11-10T18:32:19.799Z,98063.69
2022-11-10T18:37:43.740Z,98064.50
2022-11-10T18:43:07.721Z,98057.47
2022-11-10T18:48:34.719Z,98058.22
2022-11-10T18:53:59.027Z,98063.03
2022-11-10T18:59:20.777Z,98065.41
2022-11-10T19:04:42.838Z,98060.25
2022-11-10T19:10:06.372Z,98070.81
2022-11-10T19:15:28.353Z,98060.50
2022-11-10T19:20:50.365Z,98058.63
2022-11-10T19:26:22.573Z,98061.06
2022-11-10T19:31:45.576Z,98063.75
2022-11-10T19:37:07.182Z,98062.47
2022-11-10T19:42:29.083Z,98062.72
2022-11-10T19:47:51.180Z,98059.78
2022-11-10T19:53:13.128Z,98058.38
2022-11-10T19:58:39.204Z,98058.16
2022-11-10T20:04:01.385Z,98060.03
2022-11-10T20:09:23.458Z,98057.31
2022-11-10T20:14:45.297Z,98067.31
2022-11-10T20:20:07.659Z,98062.94
2022-11-10T20:25:31.973Z,98070.22
2022-11-10T20:30:57.105Z,98066.13
2022-11-10T20:36:30.821Z,98064.50
2022-11-10T20:41:52.829Z,98066.97
2022-11-10T20:47:15.415Z,98068.03
2022-11-10T20:52:37.500Z,98061.22
2022-11-10T20:57:58.936Z,98070.72
2022-11-10T21:03:22.909Z,98070.16
2022-11-10T21:08:44.818Z,98058.78
2022-11-10T21:14:06.539Z,98071.19
2022-11-10T21:19:32.845Z,98064.97
2022-11-10T21:25:00.575Z,98057.94
2022-11-10T21:30:22.557Z,98058.47
2022-11-10T21:35:44.925Z,98052.47
2022-11-10T21:41:06.202Z,98052.72
2022-11-10T21:46:28.737Z,98054.03
2022-11-10T21:51:50.569Z,98052.16
2022-11-10T21:57:13.113Z,98061.06
2022-11-10T22:02:35.483Z,98055.91
2022-11-10T22:07:57.399Z,98057.28
2022-11-10T22:13:20.639Z,98056.47
2022-11-10T22:18:43.450Z,98057.03
2022-11-10T22:24:05.403Z,98056.47
2022-11-10T22:29:31.684Z,98052.97
2022-11-10T22:34:54.459Z,98061.31
2022-11-10T22:40:16.440Z,98059.88
2022-11-10T22:45:37.906Z,98056.38
2022-11-10T22:51:02.531Z,98058.50
2022-11-10T22:56:25.241Z,98056.63
2022-11-10T23:01:47.484Z,98051.69
2022-11-10T23:07:09.949Z,98060.38
2022-11-10T23:12:33.989Z,98058.75
2022-11-10T23:17:56.290Z,98056.06
2022-11-10T23:23:18.567Z,98047.97
2022-11-10T23:28:41.053Z,98052.88
2022-11-10T23:34:03.337Z,98052.06
2022-11-10T23:39:25.481Z,98054.25
2022-11-10T23:44:47.149Z,98047.22
2022-11-10T23:50:10.114Z,98047.47
2022-11-10T23:55:39.899Z,98041.59
